createdAt,value
2018-12-20T00:02:20.897Z,6.20
2018-12-20T00:04:49.298Z,6.20
2018-12-20T00:07:17.828Z,6.20
2018-12-20T00:09:46.145Z,6.30
2018-12-20T00:12:14.586Z,6.40
2018-12-20T00:14:43.067Z,6.50
2018-12-20T00:17:16.618Z,6.50
2018-12-20T00:19:45.023Z,6.50
2018-12-20T00:22:13.408Z,6.40
2018-12-20T00:24:41.678Z,6.40
2018-12-20T00:27:10.080Z,6.30
2018-12-20T00:29:38.624Z,6.40
2018-12-20T00:32:07.691Z,6.40
2018-12-20T00:34:36.451Z,6.40
2018-12-20T00:37:05.011Z,6.30
2018-12-20T00:39:33.538Z,6.30
2018-12-20T00:42:02.138Z,6.20
2018-12-20T00:44:37.246Z,6.20
2018-12-20T00:47:01.031Z,6.20
2018-12-20T00:49:29.472Z,6.10
2018-12-20T00:51:57.977Z,6.10
2018-12-20T00:54:26.248Z,6.10
2018-12-20T00:56:54.466Z,6.10
2018-12-20T00:59:22.959Z,6.20
2018-12-20T01:01:51.462Z,6.10
2018-12-20T01:04:19.812Z,6.00
2018-12-20T01:06:48.100Z,6.00
2018-12-20T01:09:16.649Z,5.90
2018-12-20T01:11:44.977Z,6.00
2018-12-20T01:14:13.576Z,6.00
2018-12-20T01:16:41.962Z,6.00
2018-12-20T01:19:10.330Z,6.10
2018-12-20T01:21:38.611Z,5.90
2018-12-20T01:24:07.068Z,6.00
2018-12-20T01:26:35.363Z,6.10
2018-12-20T01:29:03.799Z,6.20
2018-12-20T01:31:32.373Z,6.20
2018-12-20T01:34:00.775Z,6.20
2018-12-20T01:36:29.120Z,6.20
2018-12-20T01:38:57.684Z,6.30
2018-12-20T01:41:26.055Z,6.40
2018-12-20T01:43:54.421Z,6.40
2018-12-20T01:46:22.820Z,6.40
2018-12-20T01:48:51.213Z,6.40
2018-12-20T01:51:19.543Z,6.40
2018-12-20T01:53:47.842Z,6.40
2018-12-20T01:56:16.337Z,6.40
2018-12-20T01:58:44.608Z,6.50
2018-12-20T02:01:13.010Z,6.40
2018-12-20T02:03:41.380Z,6.40
2018-12-20T02:06:09.627Z,6.50
2018-12-20T02:08:37.917Z,6.40
2018-12-20T02:11:06.307Z,6.40
2018-12-20T02:13:34.762Z,6.40
2018-12-20T02:16:03.143Z,6.30
2018-12-20T02:18:31.469Z,6.20
2018-12-20T02:20:59.969Z,6.30
2018-12-20T02:23:28.276Z,6.30
2018-12-20T02:25:56.738Z,6.10
2018-12-20T02:28:25.238Z,6.10
2018-12-20T02:30:53.626Z,6.20
2018-12-20T02:33:22.172Z,6.30
2018-12-20T02:35:51.064Z,6.30
2018-12-20T02:38:19.538Z,6.30
2018-12-20T02:40:47.913Z,6.30
2018-12-20T02:43:16.317Z,6.30
2018-12-20T02:45:44.771Z,6.10
2018-12-20T02:48:13.428Z,6.20
2018-12-20T02:50:41.904Z,6.20
2018-12-20T02:53:10.536Z,6.20
2018-12-20T02:55:39.158Z,6.30
2018-12-20T02:58:07.384Z,6.20
2018-12-20T03:00:35.720Z,6.20
2018-12-20T03:03:03.968Z,6.20
2018-12-20T03:05:32.400Z,6.20
2018-12-20T03:08:00.681Z,6.20
2018-12-20T03:10:28.927Z,6.20
2018-12-20T03:12:57.185Z,6.20
2018-12-20T03:15:25.617Z,6.20
2018-12-20T03:17:54.202Z,6.30
2018-12-20T03:20:22.756Z,6.10
2018-12-20T03:22:51.168Z,6.00
2018-12-20T03:25:19.719Z,6.00
2018-12-20T03:27:48.318Z,6.00
2018-12-20T03:30:16.591Z,6.00
2018-12-20T03:32:45.537Z,5.90
2018-12-20T03:35:14.088Z,6.00
2018-12-20T03:37:42.488Z,5.90
2018-12-20T03:40:10.796Z,5.90
2018-12-20T03:42:39.083Z,5.90
2018-12-20T03:45:07.550Z,6.10
2018-12-20T03:47:35.933Z,6.10
2018-12-20T03:56:50.281Z,6.10
2018-12-20T03:59:18.851Z,5.90
2018-12-20T04:01:47.315Z,6.00
2018-12-20T04:04:15.837Z,6.00
2018-12-20T04:06:44.291Z,6.00
2018-12-20T04:09:12.616Z,6.10
2018-12-20T04:11:40.832Z,6.00
2018-12-20T04:14:09.353Z,6.00
2018-12-20T04:16:37.633Z,6.00
2018-12-20T04:19:05.892Z,6.00
2018-12-20T04:21:34.293Z,5.90
2018-12-20T04:24:02.728Z,6.00
2018-12-20T04:26:31.253Z,6.00
2018-12-20T04:28:59.948Z,6.10
2018-12-20T04:31:28.359Z,6.00
2018-12-20T04:33:56.822Z,6.10
2018-12-20T04:36:25.181Z,6.10
2018-12-20T04:38:53.892Z,6.10
2018-12-20T04:41:22.585Z,6.10
2018-12-20T04:43:51.064Z,6.00
2018-12-20T04:46:19.635Z,6.10
2018-12-20T04:48:48.186Z,6.10
2018-12-20T04:51:16.527Z,6.20
2018-12-20T04:53:45.073Z,6.20
2018-12-20T04:56:13.742Z,6.20
2018-12-20T04:58:42.220Z,6.20
2018-12-20T05:01:10.446Z,6.10
2018-12-20T05:03:38.938Z,6.00
2018-12-20T05:06:07.363Z,6.00
2018-12-20T05:08:35.930Z,6.00
2018-12-20T05:11:04.484Z,6.00
2018-12-20T05:13:32.936Z,6.10
2018-12-20T05:16:01.755Z,6.00
2018-12-20T05:18:30.532Z,6.00
2018-12-20T05:20:59.278Z,6.10
2018-12-20T05:23:28.142Z,6.10
2018-12-20T05:25:56.799Z,6.00
2018-12-20T05:28:25.299Z,6.00
2018-12-20T05:30:53.603Z,6.00
2018-12-20T05:33:22.152Z,6.00
2018-12-20T05:35:50.574Z,6.00
2018-12-20T05:38:18.990Z,6.10
2018-12-20T05:40:47.475Z,6.10
2018-12-20T05:43:15.923Z,6.20
2018-12-20T05:45:44.753Z,6.20
2018-12-20T05:48:13.277Z,6.20
2018-12-20T05:50:41.707Z,6.20
2018-12-20T05:53:09.988Z,6.30
2018-12-20T05:55:38.265Z,6.30
2018-12-20T05:58:06.582Z,6.40
2018-12-20T06:00:35.242Z,6.40
2018-12-20T06:03:04.402Z,6.40
2018-12-20T06:05:32.852Z,6.30
2018-12-20T06:08:01.186Z,6.30
2018-12-20T06:10:29.535Z,6.30
2018-12-20T06:12:57.795Z,6.30
2018-12-20T06:15:26.298Z,6.30
2018-12-20T06:17:54.656Z,6.30
2018-12-20T06:20:23.050Z,6.30
2018-12-20T06:22:51.681Z,6.30
2018-12-20T06:25:21.378Z,6.20
2018-12-20T06:27:49.939Z,6.10
2018-12-20T06:30:18.207Z,6.20
2018-12-20T06:32:46.569Z,6.30
2018-12-20T06:35:14.839Z,6.30
2018-12-20T06:37:43.159Z,6.30
2018-12-20T06:40:11.504Z,6.30
2018-12-20T06:42:40.412Z,6.20
2018-12-20T06:45:08.859Z,6.30
2018-12-20T06:47:37.132Z,6.30
2018-12-20T06:50:05.786Z,6.30
2018-12-20T06:52:34.048Z,6.30
2018-12-20T06:55:02.542Z,6.40
2018-12-20T06:57:30.820Z,6.30
2018-12-20T06:59:59.016Z,6.30
2018-12-20T07:02:27.341Z,6.20
2018-12-20T07:04:55.685Z,6.30
2018-12-20T07:07:23.899Z,6.10
2018-12-20T07:09:52.184Z,6.20
2018-12-20T07:12:20.454Z,6.10
2018-12-20T07:14:48.809Z,6.10
2018-12-20T07:17:17.177Z,5.90
2018-12-20T07:19:45.479Z,5.90
2018-12-20T07:22:13.807Z,5.90
2018-12-20T07:24:42.104Z,5.90
2018-12-20T07:27:10.473Z,5.90
2018-12-20T07:29:38.850Z,6.00
2018-12-20T07:32:07.293Z,5.80
2018-12-20T07:34:35.539Z,5.70
2018-12-20T07:37:03.730Z,5.70
2018-12-20T07:39:31.941Z,5.70
2018-12-20T07:42:00.319Z,5.80
2018-12-20T07:44:28.747Z,5.90
2018-12-20T07:46:57.058Z,5.90
2018-12-20T07:49:25.429Z,5.90
2018-12-20T07:51:53.872Z,6.00
2018-12-20T07:54:22.287Z,6.00
2018-12-20T07:56:50.567Z,6.10
2018-12-20T07:59:23.530Z,5.90
2018-12-20T08:01:49.387Z,6.00
2018-12-20T08:04:17.745Z,6.00
2018-12-20T08:06:45.967Z,6.00
2018-12-20T08:09:14.304Z,6.00
2018-12-20T08:11:42.692Z,6.00
2018-12-20T08:14:10.959Z,6.10
2018-12-20T08:16:46.017Z,6.10
2018-12-20T08:19:10.134Z,6.10
2018-12-20T08:21:38.500Z,6.20
2018-12-20T08:24:06.793Z,6.20
2018-12-20T08:26:35.192Z,6.10
2018-12-20T08:29:03.420Z,5.90
2018-12-20T08:31:31.668Z,5.90
2018-12-20T08:33:59.988Z,5.90
2018-12-20T08:36:28.295Z,5.90
2018-12-20T08:38:56.597Z,5.90
2018-12-20T08:41:25.320Z,5.80
2018-12-20T08:43:55.314Z,5.80
2018-12-20T08:46:23.594Z,5.90
2018-12-20T08:48:51.791Z,5.80
2018-12-20T08:51:21.111Z,5.80
2018-12-20T08:53:49.388Z,5.80
2018-12-20T08:56:17.706Z,5.90
2018-12-20T08:58:45.991Z,5.80
2018-12-20T09:01:14.356Z,5.90
2018-12-20T09:03:42.808Z,5.90
2018-12-20T09:06:11.159Z,6.00
2018-12-20T09:08:39.411Z,5.90
2018-12-20T09:11:07.719Z,5.90
2018-12-20T09:13:36.020Z,5.90
2018-12-20T09:16:04.200Z,6.00
2018-12-20T09:18:32.427Z,5.90
2018-12-20T09:21:00.777Z,5.80
2018-12-20T09:23:29.020Z,5.90
2018-12-20T09:25:57.277Z,5.90
2018-12-20T09:28:25.540Z,5.80
2018-12-20T09:30:53.740Z,5.90
2018-12-20T09:33:22.090Z,6.00
2018-12-20T09:35:51.765Z,6.10
2018-12-20T09:38:20.023Z,6.10
2018-12-20T09:40:48.355Z,6.10
2018-12-20T09:43:16.603Z,6.20
2018-12-20T09:45:44.904Z,6.20
2018-12-20T09:48:13.169Z,6.20
2018-12-20T09:50:41.469Z,6.10
2018-12-20T09:53:09.794Z,6.20
2018-12-20T09:55:38.119Z,6.20
2018-12-20T09:58:06.408Z,6.30
2018-12-20T10:00:35.034Z,6.30
2018-12-20T10:03:03.284Z,6.40
2018-12-20T10:05:31.594Z,6.50
2018-12-20T10:07:59.795Z,6.60
2018-12-20T10:10:28.171Z,6.40
2018-12-20T10:12:56.378Z,6.40
2018-12-20T10:15:24.625Z,6.30
2018-12-20T10:17:52.978Z,6.30
2018-12-20T10:20:21.283Z,6.40
2018-12-20T10:22:49.439Z,6.60
2018-12-20T10:25:17.726Z,6.70
2018-12-20T10:27:45.968Z,6.80
2018-12-20T10:30:14.231Z,6.90
2018-12-20T10:32:42.904Z,7.00
2018-12-20T10:35:11.221Z,7.00
2018-12-20T10:37:39.481Z,7.20
2018-12-20T10:40:07.782Z,7.20
2018-12-20T10:42:36.239Z,7.50
2018-12-20T10:45:05.033Z,7.60
2018-12-20T10:47:33.405Z,7.80
2018-12-20T10:50:02.014Z,7.90
2018-12-20T10:52:30.296Z,7.90
2018-12-20T10:54:58.564Z,8.00
2018-12-20T10:57:26.854Z,7.90
2018-12-20T10:59:55.191Z,7.90
2018-12-20T11:02:28.919Z,8.00
2018-12-20T11:05:04.833Z,8.00
2018-12-20T11:07:38.432Z,8.00
2018-12-20T11:10:13.378Z,8.10
2018-12-20T11:12:47.866Z,8.10
2018-12-20T11:15:22.926Z,8.00
2018-12-20T11:17:51.662Z,8.00
2018-12-20T11:20:20.019Z,8.10
2018-12-20T11:22:48.463Z,8.00
2018-12-20T11:25:16.699Z,8.10
2018-12-20T11:27:45.326Z,8.10
2018-12-20T11:30:13.748Z,8.20
2018-12-20T11:32:41.977Z,8.20
2018-12-20T11:35:10.254Z,8.20
2018-12-20T11:37:38.584Z,8.20
2018-12-20T11:40:08.137Z,8.20
2018-12-20T11:42:38.190Z,8.20
2018-12-20T11:45:07.260Z,8.20
2018-12-20T11:47:35.465Z,8.30
2018-12-20T11:50:03.870Z,8.30
2018-12-20T11:52:32.271Z,8.20
2018-12-20T11:55:00.717Z,8.10
2018-12-20T11:57:29.004Z,8.00
2018-12-20T11:59:57.355Z,7.90
2018-12-20T12:02:25.787Z,7.80
2018-12-20T12:04:54.159Z,7.70
2018-12-20T12:07:22.611Z,7.60
2018-12-20T12:09:50.870Z,7.70
2018-12-20T12:12:19.266Z,7.50
2018-12-20T12:14:47.677Z,7.50
2018-12-20T12:17:15.954Z,7.50
2018-12-20T12:19:44.240Z,7.50
2018-12-20T12:22:12.532Z,7.70
2018-12-20T12:24:40.830Z,7.90
2018-12-20T12:27:09.203Z,8.00
2018-12-20T12:29:37.656Z,7.90
2018-12-20T12:32:05.996Z,7.90
2018-12-20T12:34:34.341Z,7.80
2018-12-20T12:37:02.735Z,7.90
2018-12-20T12:39:31.429Z,7.90
2018-12-20T12:41:59.744Z,7.80
2018-12-20T12:44:28.018Z,7.90
2018-12-20T12:46:56.368Z,7.90
2018-12-20T12:49:24.699Z,7.90
2018-12-20T12:51:53.697Z,7.90
2018-12-20T12:54:22.064Z,7.90
2018-12-20T12:56:50.336Z,8.10
2018-12-20T12:59:18.710Z,8.20
2018-12-20T13:01:46.911Z,8.40
2018-12-20T13:04:15.366Z,8.40
2018-12-20T13:06:43.814Z,8.30
2018-12-20T13:09:15.623Z,8.40
2018-12-20T13:11:43.980Z,8.40
2018-12-20T13:14:12.403Z,8.40
2018-12-20T13:16:40.839Z,8.50
2018-12-20T13:19:09.087Z,8.50
2018-12-20T13:21:37.619Z,8.60
2018-12-20T13:24:05.823Z,8.60
2018-12-20T13:26:34.019Z,8.50
2018-12-20T13:29:02.262Z,8.20
2018-12-20T13:31:30.463Z,8.00
2018-12-20T13:33:58.767Z,7.80
2018-12-20T13:36:27.090Z,7.70
2018-12-20T13:38:55.393Z,7.60
2018-12-20T13:41:23.770Z,7.50
2018-12-20T13:43:52.155Z,7.50
2018-12-20T13:46:20.389Z,7.60
2018-12-20T13:48:48.850Z,7.70
2018-12-20T13:51:17.173Z,7.70
2018-12-20T13:53:45.428Z,7.70
2018-12-20T13:56:13.828Z,7.80
2018-12-20T13:58:42.088Z,7.90
2018-12-20T14:01:10.459Z,7.80
2018-12-20T14:03:38.949Z,7.90
2018-12-20T14:06:07.364Z,7.90
2018-12-20T14:08:35.702Z,7.90
2018-12-20T14:11:04.014Z,7.90
2018-12-20T14:13:32.383Z,7.90
2018-12-20T14:16:00.835Z,7.80
2018-12-20T14:18:31.178Z,7.70
2018-12-20T14:20:59.702Z,7.80
2018-12-20T14:23:28.113Z,7.80
2018-12-20T14:25:57.257Z,7.80
2018-12-20T14:28:25.780Z,7.70
2018-12-20T14:30:54.139Z,7.80
2018-12-20T14:33:22.495Z,7.80
2018-12-20T14:35:51.267Z,7.90
2018-12-20T14:38:19.891Z,7.80
2018-12-20T14:40:48.331Z,7.80
2018-12-20T14:43:16.823Z,7.80
2018-12-20T14:45:45.247Z,7.80
2018-12-20T14:48:18.109Z,7.80
2018-12-20T14:50:47.781Z,7.70
2018-12-20T14:53:16.054Z,7.60
2018-12-20T14:55:44.344Z,7.60
2018-12-20T14:58:12.816Z,7.60
2018-12-20T15:00:41.568Z,7.60
2018-12-20T15:03:10.285Z,7.50
2018-12-20T15:05:38.528Z,7.40
2018-12-20T15:08:06.782Z,7.40
2018-12-20T15:10:35.152Z,7.30
2018-12-20T15:13:03.547Z,7.30
2018-12-20T15:15:31.876Z,7.30
2018-12-20T15:18:00.260Z,7.20
2018-12-20T15:20:28.607Z,7.10
2018-12-20T15:22:56.988Z,7.10
2018-12-20T15:25:25.342Z,7.00
2018-12-20T15:27:53.688Z,7.00
2018-12-20T15:30:22.133Z,7.00
2018-12-20T15:32:50.403Z,6.90
2018-12-20T15:35:18.885Z,6.80
2018-12-20T15:37:47.177Z,6.70
2018-12-20T15:40:15.534Z,6.60
2018-12-20T15:42:47.098Z,6.70
2018-12-20T15:45:15.485Z,6.60
2018-12-20T15:47:43.978Z,6.50
2018-12-20T15:50:12.411Z,6.40
2018-12-20T15:52:40.674Z,6.50
2018-12-20T15:55:09.950Z,6.60
2018-12-20T15:57:38.373Z,6.60
2018-12-20T16:00:08.688Z,6.70
2018-12-20T16:02:36.969Z,6.80
2018-12-20T16:05:06.029Z,6.90
2018-12-20T16:07:34.346Z,6.80
2018-12-20T16:10:02.752Z,6.80
2018-12-20T16:12:31.013Z,6.80
2018-12-20T16:14:59.855Z,7.00
2018-12-20T16:17:28.202Z,7.00
2018-12-20T16:19:56.467Z,7.00
2018-12-20T16:22:24.785Z,7.00
2018-12-20T16:24:53.021Z,7.10
2018-12-20T16:27:21.381Z,7.10
2018-12-20T16:29:49.636Z,7.10
2018-12-20T16:32:18.856Z,7.10
2018-12-20T16:34:47.177Z,7.20
2018-12-20T16:37:15.388Z,7.10
2018-12-20T16:39:43.729Z,7.20
2018-12-20T16:42:12.040Z,7.20
2018-12-20T16:44:41.278Z,7.00
2018-12-20T16:47:09.647Z,6.90
2018-12-20T16:49:37.969Z,7.00
2018-12-20T16:52:06.941Z,7.00
2018-12-20T16:54:35.379Z,6.90
2018-12-20T16:57:03.749Z,6.70
2018-12-20T16:59:35.327Z,6.70
2018-12-20T17:02:03.804Z,6.60
2018-12-20T17:04:32.091Z,6.60
2018-12-20T17:07:00.371Z,6.70
2018-12-20T17:09:28.696Z,6.70
2018-12-20T17:11:57.147Z,6.90
2018-12-20T17:14:25.484Z,6.80
2018-12-20T17:16:53.926Z,6.90
2018-12-20T17:19:22.523Z,7.00
2018-12-20T17:21:53.728Z,7.10
2018-12-20T17:24:22.012Z,7.20
2018-12-20T17:28:19.852Z,7.20
2018-12-20T17:30:48.165Z,7.30
2018-12-20T17:33:16.523Z,7.40
2018-12-20T17:35:44.840Z,7.40
2018-12-20T17:38:13.094Z,7.30
2018-12-20T17:40:41.534Z,7.40
2018-12-20T17:43:09.984Z,7.40
2018-12-20T17:45:38.359Z,7.50
2018-12-20T17:48:07.227Z,7.50
2018-12-20T17:50:35.546Z,7.60
2018-12-20T17:53:03.909Z,7.60
2018-12-20T17:55:32.310Z,7.60
2018-12-20T17:58:00.668Z,7.50
2018-12-20T18:00:29.187Z,7.30
2018-12-20T18:02:57.855Z,7.20
2018-12-20T18:05:26.324Z,7.40
2018-12-20T18:07:54.904Z,7.30
2018-12-20T18:10:23.867Z,7.40
2018-12-20T18:12:52.311Z,7.40
2018-12-20T18:15:20.666Z,7.40
2018-12-20T18:17:48.987Z,7.40
2018-12-20T18:20:17.755Z,7.30
2018-12-20T18:22:46.100Z,7.40
2018-12-20T18:25:14.404Z,7.40
2018-12-20T18:27:42.695Z,7.50
2018-12-20T18:30:11.907Z,7.50
2018-12-20T18:32:40.235Z,7.40
2018-12-20T18:35:08.607Z,7.50
2018-12-20T18:37:37.072Z,7.50
2018-12-20T18:40:06.970Z,7.40
2018-12-20T18:42:35.402Z,7.40
2018-12-20T18:45:03.855Z,7.40
2018-12-20T18:47:32.457Z,7.40
2018-12-20T18:50:00.964Z,7.40
2018-12-20T18:52:29.470Z,7.40
2018-12-20T18:54:57.759Z,7.40
2018-12-20T18:57:26.094Z,7.40
2018-12-20T18:59:54.336Z,7.40
2018-12-20T19:02:22.687Z,7.40
2018-12-20T19:04:51.294Z,7.40
2018-12-20T19:07:19.542Z,7.50
2018-12-20T19:09:47.884Z,7.40
2018-12-20T19:12:16.263Z,7.60
2018-12-20T19:14:44.815Z,7.50
2018-12-20T19:17:13.130Z,7.50
2018-12-20T19:19:41.587Z,7.60
2018-12-20T19:22:09.823Z,7.60
2018-12-20T19:24:38.334Z,7.60
2018-12-20T19:27:06.685Z,7.60
2018-12-20T19:29:34.982Z,7.70
2018-12-20T19:32:03.338Z,7.60
2018-12-20T19:34:31.669Z,7.70
2018-12-20T19:37:00.126Z,7.70
2018-12-20T19:39:29.299Z,7.70
2018-12-20T19:42:02.081Z,7.70
2018-12-20T19:44:30.370Z,7.70
2018-12-20T19:46:58.853Z,7.50
2018-12-20T19:49:27.338Z,7.50
2018-12-20T19:51:55.842Z,7.50
2018-12-20T19:54:24.288Z,7.50
2018-12-20T19:56:53.564Z,7.50
2018-12-20T19:59:22.026Z,7.50
2018-12-20T20:01:50.428Z,7.30
2018-12-20T20:04:18.765Z,7.30
2018-12-20T20:06:47.139Z,7.30
2018-12-20T20:09:15.498Z,7.30
2018-12-20T20:11:43.933Z,7.40
2018-12-20T20:14:12.291Z,7.50
2018-12-20T20:16:40.654Z,7.50
2018-12-20T20:19:09.086Z,7.40
2018-12-20T20:21:37.480Z,7.50
2018-12-20T20:24:06.042Z,7.40
2018-12-20T20:26:34.512Z,7.40
2018-12-20T20:29:03.024Z,7.50
2018-12-20T20:31:31.362Z,7.50
2018-12-20T20:33:59.720Z,7.40
2018-12-20T20:36:28.600Z,7.50
2018-12-20T20:39:01.933Z,7.50
2018-12-20T20:41:28.627Z,7.40
2018-12-20T20:43:57.086Z,7.50
2018-12-20T20:46:25.385Z,7.50
2018-12-20T20:48:53.685Z,7.60
2018-12-20T20:51:22.158Z,7.70
2018-12-20T20:53:51.197Z,7.60
2018-12-20T20:56:19.822Z,7.50
2018-12-20T20:58:48.209Z,7.40
2018-12-20T21:01:17.246Z,7.30
2018-12-20T21:03:46.437Z,7.20
2018-12-20T21:06:14.996Z,7.30
2018-12-20T21:08:43.565Z,7.40
2018-12-20T21:11:11.868Z,7.30
2018-12-20T21:13:40.340Z,7.30
2018-12-20T21:16:08.883Z,7.20
2018-12-20T21:18:37.283Z,7.20
2018-12-20T21:21:07.996Z,7.10
2018-12-20T21:23:37.822Z,7.10
2018-12-20T21:26:06.205Z,7.20
2018-12-20T21:28:34.584Z,7.30
2018-12-20T21:31:02.820Z,7.40
2018-12-20T21:33:31.113Z,7.30
2018-12-20T21:35:59.442Z,7.40
2018-12-20T21:38:27.936Z,7.50
2018-12-20T21:40:56.465Z,7.40
2018-12-20T21:43:24.789Z,7.50
2018-12-20T21:45:53.066Z,7.60
2018-12-20T21:48:21.426Z,7.60
2018-12-20T21:50:49.969Z,7.70
2018-12-20T21:53:18.514Z,7.70
2018-12-20T21:55:46.886Z,7.70
2018-12-20T21:58:15.266Z,7.70
2018-12-20T22:00:43.767Z,7.70
2018-12-20T22:03:12.172Z,7.50
2018-12-20T22:05:40.568Z,7.50
2018-12-20T22:08:09.602Z,7.60
2018-12-20T22:10:37.915Z,7.50
2018-12-20T22:13:09.600Z,7.50
2018-12-20T22:15:37.978Z,7.50
2018-12-20T22:18:07.314Z,7.50
2018-12-20T22:20:47.058Z,7.50
2018-12-20T22:23:10.924Z,7.40
2018-12-20T22:25:39.405Z,7.50
2018-12-20T22:28:08.116Z,7.60
2018-12-20T22:30:36.391Z,7.60
2018-12-20T22:33:04.728Z,7.50
2018-12-20T22:35:33.796Z,7.50
2018-12-20T22:38:02.071Z,7.60
2018-12-20T22:40:30.393Z,7.50
2018-12-20T22:42:58.828Z,7.60
2018-12-20T22:45:27.081Z,7.50
2018-12-20T22:47:55.460Z,7.50
2018-12-20T22:50:23.649Z,7.60
2018-12-20T22:52:51.892Z,7.70
2018-12-20T22:55:20.275Z,7.70
2018-12-20T22:57:48.574Z,7.70
2018-12-20T23:00:17.432Z,7.70
2018-12-20T23:02:45.921Z,7.70
2018-12-20T23:05:14.121Z,7.70
2018-12-20T23:07:42.376Z,7.80
2018-12-20T23:10:10.889Z,7.80
2018-12-20T23:12:39.170Z,7.70
2018-12-20T23:15:07.516Z,7.70
2018-12-20T23:17:35.930Z,7.80
2018-12-20T23:20:05.299Z,7.80
2018-12-20T23:22:33.540Z,7.70
2018-12-20T23:25:02.006Z,7.80
2018-12-20T23:27:30.293Z,7.70
2018-12-20T23:29:58.495Z,7.80
2018-12-20T23:32:26.880Z,7.70
2018-12-20T23:34:55.182Z,7.60
2018-12-20T23:37:23.497Z,7.70
2018-12-20T23:39:51.692Z,7.70
2018-12-20T23:42:20.106Z,7.80
2018-12-20T23:44:48.387Z,7.80
2018-12-20T23:47:16.662Z,7.80
2018-12-20T23:49:44.965Z,7.80
2018-12-20T23:52:13.519Z,7.80
2018-12-20T23:54:41.897Z,7.60
2018-12-20T23:57:10.507Z,7.70
2018-12-20T23:59:38.967Z,7.80
